ANACAPA ISLAND CA US current weather conditions

sailwx.info

Wind from 012 at 6 knots gusting 10

Air temperature 20.0° C
Dewpoint 13.7° C

Last reported at 2014-Oct-23 06:23 UTC.
Time now 2014-Oct-23 08:04 UTC

Location: N 34°01' W 119°22'.
View on Google Maps.

See reports from other nearby stations

  
Tides and Currents Weather Stations Pressure Air Temp Water Temp Dewpoint Dewpoint Depression Visibility Wind Speed Wind Dir Waves Ship Positions
date/time (UTC)wind fromknots sea level pressurealtimeterstation pressurevisibilityair tempwater tempwave heightnotes
2014-Oct-23 06:23 012 6 gusting 10 20.0
2014-Oct-23 05:23 005 10 gusting 13 21.1
2014-Oct-23 04:23 005 10 gusting 12 20.0
2014-Oct-23 03:23 329 7 gusting 12 21.1
2014-Oct-23 02:23 331 7 gusting 9 20.6
2014-Oct-23 01:23 297 4 gusting 7 21.1
2014-Oct-23 00:23 282 4 gusting 11 22.2
2014-Oct-22 23:23 279 6 gusting 15 22.2
2014-Oct-22 22:23 299 12 gusting 16 21.1
2014-Oct-22 21:23 034 4 gusting 12 25.0
2014-Oct-22 20:23 185 1 gusting 8 26.7
2014-Oct-22 19:23 024 1 gusting 7 27.2
2014-Oct-22 18:23 310 1 gusting 5 26.1
2014-Oct-22 17:23 045 3 gusting 4 25.6
2014-Oct-22 16:23 046 3 gusting 8 23.3
2014-Oct-22 15:23 042 7 gusting 9 21.7
2014-Oct-22 14:23 058 6 gusting 8 19.4
2014-Oct-22 13:23 083 5 gusting 7 19.4
2014-Oct-22 12:23 144 2 gusting 7 20.6
2014-Oct-22 11:23 118 4 gusting 6 19.4
2014-Oct-22 10:23 020 5 gusting 10 19.4
2014-Oct-22 09:23 293 6 gusting 12 20.0
2014-Oct-22 08:23 300 7 gusting 10 21.1
2014-Oct-22 07:23 301 9 gusting 19 20.6
2014-Oct-22 06:23 303 15 gusting 19 20.6
2014-Oct-22 05:23 283 9 gusting 15 20.6
2014-Oct-22 04:23 245 1 gusting 6 20.6
2014-Oct-22 03:23 265 6 gusting 20 21.7
2014-Oct-22 02:23 298 17 gusting 26 22.2
2014-Oct-22 01:23 302 17 gusting 24 21.7
2014-Oct-22 00:23 302 17 gusting 22 21.7
2014-Oct-21 23:23 321 3 gusting 6 22.2
2014-Oct-21 22:23 298 3 gusting 9 22.2
2014-Oct-21 21:23 299 8 gusting 13 20.6
2014-Oct-21 20:23 291 5 gusting 10 21.7
2014-Oct-21 19:23 276 6 gusting 13 22.2
2014-Oct-21 18:23 309 7 gusting 9 20.6
2014-Oct-21 17:23 291 3 gusting 9 21.7
2014-Oct-21 16:23 088 2 gusting 5 22.8
2014-Oct-21 15:23 076 1 gusting 6 20.6
2014-Oct-21 14:23 019 3 gusting 5 20.0
2014-Oct-21 13:23 356 1 gusting 6 18.9
2014-Oct-21 12:23 001 3 gusting 11 18.9
2014-Oct-21 11:23 341 7 gusting 16 19.4
2014-Oct-21 10:23 309 13 gusting 20 20.6
2014-Oct-21 09:23 297 17 gusting 25 20.6
2014-Oct-21 08:23 297 20 gusting 32 20.0